sensor_id;sensor_type;location;lat;lon;timestamp;P1;durP1;ratioP1;P2;durP2;ratioP2
67861;SDS011;54665;51.462;6.698;2023-04-24T00:01:47;1.52;;;0.68;;
67861;SDS011;54665;51.462;6.698;2023-04-24T00:04:12;1.77;;;0.80;;
67861;SDS011;54665;51.462;6.698;2023-04-24T00:06:39;2.35;;;0.98;;
67861;SDS011;54665;51.462;6.698;2023-04-24T00:09:07;1.85;;;0.70;;
67861;SDS011;54665;51.462;6.698;2023-04-24T00:11:34;1.95;;;0.90;;
67861;SDS011;54665;51.462;6.698;2023-04-24T00:14:00;2.50;;;1.10;;
67861;SDS011;54665;51.462;6.698;2023-04-24T00:16:26;2.15;;;0.88;;
67861;SDS011;54665;51.462;6.698;2023-04-24T00:18:51;3.00;;;0.90;;
67861;SDS011;54665;51.462;6.698;2023-04-24T00:21:17;2.10;;;1.17;;
67861;SDS011;54665;51.462;6.698;2023-04-24T00:23:43;3.10;;;1.10;;
67861;SDS011;54665;51.462;6.698;2023-04-24T00:26:09;3.55;;;0.90;;
67861;SDS011;54665;51.462;6.698;2023-04-24T00:28:34;2.80;;;0.90;;
67861;SDS011;54665;51.462;6.698;2023-04-24T00:31:00;2.85;;;1.30;;
67861;SDS011;54665;51.462;6.698;2023-04-24T00:33:25;2.97;;;1.40;;
67861;SDS011;54665;51.462;6.698;2023-04-24T00:35:51;3.27;;;1.30;;
67861;SDS011;54665;51.462;6.698;2023-04-24T00:38:16;3.23;;;1.60;;
67861;SDS011;54665;51.462;6.698;2023-04-24T00:40:41;3.42;;;1.60;;
67861;SDS011;54665;51.462;6.698;2023-04-24T00:43:07;3.70;;;1.80;;
67861;SDS011;54665;51.462;6.698;2023-04-24T00:45:33;4.30;;;1.80;;
67861;SDS011;54665;51.462;6.698;2023-04-24T00:47:59;5.03;;;1.77;;
67861;SDS011;54665;51.462;6.698;2023-04-24T00:50:25;3.90;;;1.73;;
67861;SDS011;54665;51.462;6.698;2023-04-24T00:52:51;4.35;;;1.95;;
67861;SDS011;54665;51.462;6.698;2023-04-24T00:55:17;4.60;;;2.30;;
67861;SDS011;54665;51.462;6.698;2023-04-24T00:57:43;5.07;;;2.40;;
67861;SDS011;54665;51.462;6.698;2023-04-24T01:00:10;4.90;;;2.80;;
67861;SDS011;54665;51.462;6.698;2023-04-24T01:02:40;7.07;;;2.65;;
67861;SDS011;54665;51.462;6.698;2023-04-24T01:05:10;4.93;;;2.45;;
67861;SDS011;54665;51.462;6.698;2023-04-24T01:07:38;5.60;;;2.58;;
67861;SDS011;54665;51.462;6.698;2023-04-24T01:10:06;5.70;;;2.95;;
67861;SDS011;54665;51.462;6.698;2023-04-24T01:12:33;5.20;;;2.93;;
67861;SDS011;54665;51.462;6.698;2023-04-24T01:14:58;4.78;;;2.80;;
67861;SDS011;54665;51.462;6.698;2023-04-24T01:17:24;6.97;;;2.80;;
67861;SDS011;54665;51.462;6.698;2023-04-24T01:19:49;8.83;;;3.23;;
67861;SDS011;54665;51.462;6.698;2023-04-24T01:22:15;6.00;;;2.80;;
67861;SDS011;54665;51.462;6.698;2023-04-24T01:24:41;9.73;;;3.35;;
67861;SDS011;54665;51.462;6.698;2023-04-24T01:27:08;6.93;;;3.40;;
67861;SDS011;54665;51.462;6.698;2023-04-24T01:29:35;9.40;;;3.85;;
67861;SDS011;54665;51.462;6.698;2023-04-24T01:32:01;9.03;;;3.60;;
67861;SDS011;54665;51.462;6.698;2023-04-24T01:34:28;9.00;;;3.60;;
67861;SDS011;54665;51.462;6.698;2023-04-24T01:36:53;11.10;;;4.00;;
67861;SDS011;54665;51.462;6.698;2023-04-24T01:39:19;9.37;;;4.00;;
67861;SDS011;54665;51.462;6.698;2023-04-24T01:41:46;10.55;;;4.55;;
67861;SDS011;54665;51.462;6.698;2023-04-24T01:44:11;8.43;;;4.20;;
67861;SDS011;54665;51.462;6.698;2023-04-24T01:46:37;8.07;;;4.10;;
67861;SDS011;54665;51.462;6.698;2023-04-24T01:49:03;8.23;;;4.20;;
67861;SDS011;54665;51.462;6.698;2023-04-24T01:51:28;8.05;;;4.03;;
67861;SDS011;54665;51.462;6.698;2023-04-24T01:53:55;8.07;;;3.87;;
67861;SDS011;54665;51.462;6.698;2023-04-24T01:56:21;8.18;;;3.85;;
67861;SDS011;54665;51.462;6.698;2023-04-24T01:58:47;7.03;;;3.73;;
67861;SDS011;54665;51.462;6.698;2023-04-24T02:01:17;9.10;;;4.28;;
67861;SDS011;54665;51.462;6.698;2023-04-24T02:03:46;10.15;;;4.30;;
67861;SDS011;54665;51.462;6.698;2023-04-24T02:06:12;9.00;;;4.20;;
67861;SDS011;54665;51.462;6.698;2023-04-24T02:08:37;8.38;;;3.95;;
67861;SDS011;54665;51.462;6.698;2023-04-24T02:11:03;9.03;;;4.30;;
67861;SDS011;54665;51.462;6.698;2023-04-24T02:13:30;9.30;;;4.85;;
67861;SDS011;54665;51.462;6.698;2023-04-24T02:15:55;9.40;;;4.60;;
67861;SDS011;54665;51.462;6.698;2023-04-24T02:18:22;9.52;;;4.60;;
67861;SDS011;54665;51.462;6.698;2023-04-24T02:20:49;9.97;;;4.50;;
67861;SDS011;54665;51.462;6.698;2023-04-24T02:23:14;10.50;;;4.72;;
67861;SDS011;54665;51.462;6.698;2023-04-24T02:25:40;11.63;;;4.93;;
67861;SDS011;54665;51.462;6.698;2023-04-24T02:28:05;9.93;;;5.30;;
67861;SDS011;54665;51.462;6.698;2023-04-24T02:30:32;13.15;;;5.47;;
67861;SDS011;54665;51.462;6.698;2023-04-24T02:32:58;12.20;;;5.33;;
67861;SDS011;54665;51.462;6.698;2023-04-24T02:35:23;12.53;;;5.87;;
67861;SDS011;54665;51.462;6.698;2023-04-24T02:37:49;12.47;;;5.57;;
67861;SDS011;54665;51.462;6.698;2023-04-24T02:40:14;12.37;;;5.57;;
67861;SDS011;54665;51.462;6.698;2023-04-24T02:42:39;13.60;;;6.00;;
67861;SDS011;54665;51.462;6.698;2023-04-24T02:45:05;13.83;;;5.83;;
67861;SDS011;54665;51.462;6.698;2023-04-24T02:47:31;15.23;;;6.57;;
67861;SDS011;54665;51.462;6.698;2023-04-24T02:49:56;15.30;;;6.60;;
67861;SDS011;54665;51.462;6.698;2023-04-24T02:52:22;17.13;;;7.13;;
67861;SDS011;54665;51.462;6.698;2023-04-24T02:54:47;13.20;;;6.25;;
67861;SDS011;54665;51.462;6.698;2023-04-24T02:57:13;17.03;;;7.33;;
67861;SDS011;54665;51.462;6.698;2023-04-24T02:59:40;14.10;;;6.55;;
67861;SDS011;54665;51.462;6.698;2023-04-24T03:02:06;15.90;;;7.13;;
67861;SDS011;54665;51.462;6.698;2023-04-24T03:04:31;13.37;;;6.27;;
67861;SDS011;54665;51.462;6.698;2023-04-24T03:06:57;15.60;;;6.97;;
67861;SDS011;54665;51.462;6.698;2023-04-24T03:09:22;17.50;;;7.37;;
67861;SDS011;54665;51.462;6.698;2023-04-24T03:11:48;13.60;;;5.75;;
67861;SDS011;54665;51.462;6.698;2023-04-24T03:14:14;17.17;;;7.00;;
67861;SDS011;54665;51.462;6.698;2023-04-24T03:16:40;15.40;;;6.93;;
67861;SDS011;54665;51.462;6.698;2023-04-24T03:19:06;14.70;;;7.03;;
67861;SDS011;54665;51.462;6.698;2023-04-24T03:21:36;16.73;;;7.50;;
67861;SDS011;54665;51.462;6.698;2023-04-24T03:24:06;18.77;;;7.22;;
67861;SDS011;54665;51.462;6.698;2023-04-24T03:26:33;16.80;;;7.03;;
67861;SDS011;54665;51.462;6.698;2023-04-24T03:29:14;17.57;;;7.63;;
67861;SDS011;54665;51.462;6.698;2023-04-24T03:31:41;22.00;;;8.43;;
67861;SDS011;54665;51.462;6.698;2023-04-24T03:34:06;20.80;;;8.27;;
67861;SDS011;54665;51.462;6.698;2023-04-24T03:36:32;19.50;;;7.83;;
67861;SDS011;54665;51.462;6.698;2023-04-24T03:38:57;17.40;;;7.45;;
67861;SDS011;54665;51.462;6.698;2023-04-24T03:41:29;19.47;;;8.13;;
67861;SDS011;54665;51.462;6.698;2023-04-24T03:44:02;16.42;;;7.82;;
67861;SDS011;54665;51.462;6.698;2023-04-24T03:46:29;17.83;;;7.47;;
67861;SDS011;54665;51.462;6.698;2023-04-24T03:48:58;16.95;;;7.82;;
67861;SDS011;54665;51.462;6.698;2023-04-24T03:51:28;18.83;;;8.02;;
67861;SDS011;54665;51.462;6.698;2023-04-24T03:54:00;16.57;;;7.70;;
67861;SDS011;54665;51.462;6.698;2023-04-24T03:56:28;17.45;;;8.00;;
67861;SDS011;54665;51.462;6.698;2023-04-24T03:58:53;20.83;;;7.90;;
67861;SDS011;54665;51.462;6.698;2023-04-24T04:01:19;15.95;;;7.25;;
67861;SDS011;54665;51.462;6.698;2023-04-24T04:03:59;16.73;;;7.77;;
67861;SDS011;54665;51.462;6.698;2023-04-24T04:06:26;16.95;;;7.80;;
67861;SDS011;54665;51.462;6.698;2023-04-24T04:08:53;15.80;;;7.40;;
67861;SDS011;54665;51.462;6.698;2023-04-24T04:11:18;17.23;;;6.90;;
67861;SDS011;54665;51.462;6.698;2023-04-24T04:13:44;16.45;;;6.38;;
67861;SDS011;54665;51.462;6.698;2023-04-24T04:16:13;16.17;;;6.93;;
67861;SDS011;54665;51.462;6.698;2023-04-24T04:18:38;15.63;;;7.20;;
67861;SDS011;54665;51.462;6.698;2023-04-24T04:21:06;14.30;;;7.18;;
67861;SDS011;54665;51.462;6.698;2023-04-24T04:23:31;15.63;;;7.17;;
67861;SDS011;54665;51.462;6.698;2023-04-24T04:26:14;17.63;;;7.28;;
67861;SDS011;54665;51.462;6.698;2023-04-24T04:29:18;19.63;;;7.40;;
67861;SDS011;54665;51.462;6.698;2023-04-24T04:31:44;14.77;;;7.03;;
67861;SDS011;54665;51.462;6.698;2023-04-24T04:34:12;21.48;;;7.13;;
67861;SDS011;54665;51.462;6.698;2023-04-24T04:36:39;16.37;;;7.20;;
67861;SDS011;54665;51.462;6.698;2023-04-24T04:39:23;16.52;;;7.03;;
67861;SDS011;54665;51.462;6.698;2023-04-24T04:41:57;16.20;;;6.95;;
67861;SDS011;54665;51.462;6.698;2023-04-24T04:44:27;17.45;;;7.28;;
67861;SDS011;54665;51.462;6.698;2023-04-24T04:46:53;16.50;;;6.85;;
67861;SDS011;54665;51.462;6.698;2023-04-24T04:49:26;13.07;;;6.53;;
67861;SDS011;54665;51.462;6.698;2023-04-24T04:51:53;14.20;;;6.53;;
67861;SDS011;54665;51.462;6.698;2023-04-24T04:54:19;16.25;;;7.03;;
67861;SDS011;54665;51.462;6.698;2023-04-24T04:56:45;16.30;;;6.70;;
67861;SDS011;54665;51.462;6.698;2023-04-24T04:59:10;15.77;;;6.25;;
67861;SDS011;54665;51.462;6.698;2023-04-24T05:01:38;12.70;;;5.90;;
67861;SDS011;54665;51.462;6.698;2023-04-24T05:04:05;15.30;;;5.78;;
67861;SDS011;54665;51.462;6.698;2023-04-24T05:06:31;11.50;;;5.85;;
67861;SDS011;54665;51.462;6.698;2023-04-24T05:08:56;11.23;;;5.50;;
67861;SDS011;54665;51.462;6.698;2023-04-24T05:11:30;12.27;;;6.15;;
67861;SDS011;54665;51.462;6.698;2023-04-24T05:13:57;12.50;;;6.03;;
67861;SDS011;54665;51.462;6.698;2023-04-24T05:16:31;13.50;;;6.00;;
67861;SDS011;54665;51.462;6.698;2023-04-24T05:18:57;12.02;;;5.57;;
67861;SDS011;54665;51.462;6.698;2023-04-24T05:21:28;13.60;;;6.07;;
67861;SDS011;54665;51.462;6.698;2023-04-24T05:23:54;13.27;;;5.87;;
67861;SDS011;54665;51.462;6.698;2023-04-24T05:26:38;12.95;;;6.25;;
67861;SDS011;54665;51.462;6.698;2023-04-24T05:29:06;13.98;;;6.40;;
67861;SDS011;54665;51.462;6.698;2023-04-24T05:31:32;14.52;;;6.25;;
67861;SDS011;54665;51.462;6.698;2023-04-24T05:33:58;14.77;;;6.67;;
67861;SDS011;54665;51.462;6.698;2023-04-24T05:36:23;14.43;;;6.65;;
67861;SDS011;54665;51.462;6.698;2023-04-24T05:38:49;12.87;;;6.60;;
67861;SDS011;54665;51.462;6.698;2023-04-24T05:41:14;11.30;;;5.77;;
67861;SDS011;54665;51.462;6.698;2023-04-24T05:43:40;12.23;;;6.28;;
67861;SDS011;54665;51.462;6.698;2023-04-24T05:46:06;15.27;;;6.47;;
67861;SDS011;54665;51.462;6.698;2023-04-24T05:48:31;12.80;;;5.82;;
67861;SDS011;54665;51.462;6.698;2023-04-24T05:51:00;10.75;;;5.30;;
67861;SDS011;54665;51.462;6.698;2023-04-24T05:53:25;14.27;;;6.40;;
67861;SDS011;54665;51.462;6.698;2023-04-24T05:55:51;13.07;;;6.23;;
67861;SDS011;54665;51.462;6.698;2023-04-24T05:58:16;15.40;;;6.60;;
67861;SDS011;54665;51.462;6.698;2023-04-24T06:00:46;13.37;;;6.13;;
67861;SDS011;54665;51.462;6.698;2023-04-24T06:03:11;15.50;;;7.15;;
67861;SDS011;54665;51.462;6.698;2023-04-24T06:05:37;17.87;;;7.80;;
67861;SDS011;54665;51.462;6.698;2023-04-24T06:08:03;14.43;;;6.63;;
67861;SDS011;54665;51.462;6.698;2023-04-24T06:10:33;14.60;;;6.65;;
67861;SDS011;54665;51.462;6.698;2023-04-24T06:12:59;13.80;;;6.10;;
67861;SDS011;54665;51.462;6.698;2023-04-24T06:15:27;16.83;;;7.38;;
67861;SDS011;54665;51.462;6.698;2023-04-24T06:17:57;16.95;;;7.40;;
67861;SDS011;54665;51.462;6.698;2023-04-24T06:20:23;17.13;;;7.37;;
67861;SDS011;54665;51.462;6.698;2023-04-24T06:22:48;18.30;;;7.07;;
67861;SDS011;54665;51.462;6.698;2023-04-24T06:25:14;16.00;;;6.83;;
67861;SDS011;54665;51.462;6.698;2023-04-24T06:27:39;14.60;;;6.10;;
67861;SDS011;54665;51.462;6.698;2023-04-24T06:30:07;13.38;;;6.03;;
67861;SDS011;54665;51.462;6.698;2023-04-24T06:32:33;13.32;;;6.35;;
67861;SDS011;54665;51.462;6.698;2023-04-24T06:34:58;13.87;;;5.70;;
67861;SDS011;54665;51.462;6.698;2023-04-24T06:37:24;12.52;;;5.80;;
67861;SDS011;54665;51.462;6.698;2023-04-24T06:39:49;11.57;;;5.43;;
67861;SDS011;54665;51.462;6.698;2023-04-24T06:42:15;12.10;;;5.40;;
67861;SDS011;54665;51.462;6.698;2023-04-24T06:44:42;11.63;;;5.15;;
67861;SDS011;54665;51.462;6.698;2023-04-24T06:47:08;10.23;;;5.10;;
67861;SDS011;54665;51.462;6.698;2023-04-24T06:49:38;11.85;;;5.03;;
67861;SDS011;54665;51.462;6.698;2023-04-24T06:52:05;10.13;;;4.63;;
67861;SDS011;54665;51.462;6.698;2023-04-24T06:54:31;9.57;;;4.65;;
67861;SDS011;54665;51.462;6.698;2023-04-24T06:56:57;12.90;;;4.43;;
67861;SDS011;54665;51.462;6.698;2023-04-24T06:59:24;8.18;;;3.88;;
67861;SDS011;54665;51.462;6.698;2023-04-24T07:01:50;8.00;;;3.60;;
67861;SDS011;54665;51.462;6.698;2023-04-24T07:04:16;7.65;;;3.80;;
67861;SDS011;54665;51.462;6.698;2023-04-24T07:06:42;7.55;;;3.90;;
67861;SDS011;54665;51.462;6.698;2023-04-24T07:09:08;8.20;;;4.20;;
67861;SDS011;54665;51.462;6.698;2023-04-24T07:11:34;6.85;;;3.22;;
67861;SDS011;54665;51.462;6.698;2023-04-24T07:14:03;5.95;;;3.00;;
67861;SDS011;54665;51.462;6.698;2023-04-24T07:16:28;3.80;;;1.97;;
67861;SDS011;54665;51.462;6.698;2023-04-24T07:18:53;6.63;;;2.17;;
67861;SDS011;54665;51.462;6.698;2023-04-24T07:21:19;2.67;;;1.20;;
67861;SDS011;54665;51.462;6.698;2023-04-24T07:23:44;4.50;;;1.43;;
67861;SDS011;54665;51.462;6.698;2023-04-24T07:26:09;2.70;;;1.03;;
67861;SDS011;54665;51.462;6.698;2023-04-24T07:28:35;3.00;;;1.27;;
67861;SDS011;54665;51.462;6.698;2023-04-24T07:31:00;2.00;;;1.10;;
67861;SDS011;54665;51.462;6.698;2023-04-24T07:33:26;2.43;;;1.30;;
67861;SDS011;54665;51.462;6.698;2023-04-24T07:35:52;2.42;;;1.23;;
67861;SDS011;54665;51.462;6.698;2023-04-24T07:38:17;3.05;;;1.30;;
67861;SDS011;54665;51.462;6.698;2023-04-24T07:40:46;2.20;;;1.00;;
67861;SDS011;54665;51.462;6.698;2023-04-24T07:43:12;2.80;;;0.97;;
67861;SDS011;54665;51.462;6.698;2023-04-24T07:45:37;5.20;;;1.20;;
67861;SDS011;54665;51.462;6.698;2023-04-24T07:48:03;3.33;;;1.10;;
67861;SDS011;54665;51.462;6.698;2023-04-24T07:50:28;3.10;;;1.00;;
67861;SDS011;54665;51.462;6.698;2023-04-24T07:52:54;2.50;;;0.97;;
67861;SDS011;54665;51.462;6.698;2023-04-24T07:55:19;2.03;;;1.00;;
67861;SDS011;54665;51.462;6.698;2023-04-24T07:57:45;1.95;;;0.80;;
67861;SDS011;54665;51.462;6.698;2023-04-24T08:00:10;2.03;;;1.10;;
67861;SDS011;54665;51.462;6.698;2023-04-24T08:02:39;1.95;;;0.90;;
67861;SDS011;54665;51.462;6.698;2023-04-24T08:05:04;1.50;;;0.67;;
67861;SDS011;54665;51.462;6.698;2023-04-24T08:07:31;1.77;;;1.05;;
67861;SDS011;54665;51.462;6.698;2023-04-24T08:09:56;2.20;;;1.10;;
67861;SDS011;54665;51.462;6.698;2023-04-24T08:12:21;3.10;;;1.30;;
67861;SDS011;54665;51.462;6.698;2023-04-24T08:14:47;3.03;;;1.10;;
67861;SDS011;54665;51.462;6.698;2023-04-24T08:17:12;4.85;;;1.00;;
67861;SDS011;54665;51.462;6.698;2023-04-24T08:19:39;3.23;;;1.00;;
67861;SDS011;54665;51.462;6.698;2023-04-24T08:22:08;2.40;;;1.10;;
67861;SDS011;54665;51.462;6.698;2023-04-24T08:24:33;2.00;;;0.90;;
67861;SDS011;54665;51.462;6.698;2023-04-24T08:26:58;2.17;;;1.10;;
67861;SDS011;54665;51.462;6.698;2023-04-24T08:29:24;2.33;;;1.03;;
67861;SDS011;54665;51.462;6.698;2023-04-24T08:31:49;3.40;;;0.95;;
67861;SDS011;54665;51.462;6.698;2023-04-24T08:34:15;2.13;;;1.00;;
67861;SDS011;54665;51.462;6.698;2023-04-24T08:36:40;2.90;;;1.07;;
67861;SDS011;54665;51.462;6.698;2023-04-24T08:39:06;2.35;;;1.00;;
67861;SDS011;54665;51.462;6.698;2023-04-24T08:41:33;1.60;;;0.70;;
67861;SDS011;54665;51.462;6.698;2023-04-24T08:43:59;1.52;;;0.63;;
67861;SDS011;54665;51.462;6.698;2023-04-24T08:46:26;1.60;;;0.63;;
67861;SDS011;54665;51.462;6.698;2023-04-24T08:48:52;1.87;;;0.80;;
67861;SDS011;54665;51.462;6.698;2023-04-24T08:51:17;1.53;;;0.80;;
67861;SDS011;54665;51.462;6.698;2023-04-24T08:53:45;1.88;;;0.70;;
67861;SDS011;54665;51.462;6.698;2023-04-24T08:56:11;1.77;;;0.70;;
67861;SDS011;54665;51.462;6.698;2023-04-24T08:58:37;3.40;;;1.40;;
67861;SDS011;54665;51.462;6.698;2023-04-24T09:01:03;4.65;;;2.17;;
67861;SDS011;54665;51.462;6.698;2023-04-24T09:03:29;8.20;;;2.60;;
67861;SDS011;54665;51.462;6.698;2023-04-24T09:05:56;7.78;;;3.33;;
67861;SDS011;54665;51.462;6.698;2023-04-24T09:08:24;11.57;;;5.38;;
67861;SDS011;54665;51.462;6.698;2023-04-24T09:10:50;12.52;;;5.07;;
67861;SDS011;54665;51.462;6.698;2023-04-24T09:13:16;10.63;;;4.87;;
67861;SDS011;54665;51.462;6.698;2023-04-24T09:15:41;8.40;;;3.50;;
67861;SDS011;54665;51.462;6.698;2023-04-24T09:18:07;11.80;;;5.05;;
67861;SDS011;54665;51.462;6.698;2023-04-24T09:20:33;8.53;;;3.63;;
67861;SDS011;54665;51.462;6.698;2023-04-24T09:23:00;10.40;;;4.80;;
67861;SDS011;54665;51.462;6.698;2023-04-24T09:25:31;10.27;;;4.57;;
67861;SDS011;54665;51.462;6.698;2023-04-24T09:28:02;10.20;;;3.28;;
67861;SDS011;54665;51.462;6.698;2023-04-24T09:30:29;10.05;;;4.32;;
67861;SDS011;54665;51.462;6.698;2023-04-24T09:35:36;12.50;;;4.93;;
67861;SDS011;54665;51.462;6.698;2023-04-24T09:38:01;11.48;;;5.00;;
67861;SDS011;54665;51.462;6.698;2023-04-24T09:40:27;8.60;;;4.00;;
67861;SDS011;54665;51.462;6.698;2023-04-24T09:42:53;9.93;;;4.00;;
67861;SDS011;54665;51.462;6.698;2023-04-24T09:45:20;10.90;;;4.93;;
67861;SDS011;54665;51.462;6.698;2023-04-24T09:47:46;11.13;;;4.47;;
67861;SDS011;54665;51.462;6.698;2023-04-24T09:50:17;12.82;;;4.72;;
67861;SDS011;54665;51.462;6.698;2023-04-24T09:52:43;12.13;;;4.63;;
67861;SDS011;54665;51.462;6.698;2023-04-24T09:55:10;13.85;;;5.40;;
67861;SDS011;54665;51.462;6.698;2023-04-24T09:57:46;12.23;;;4.85;;
67861;SDS011;54665;51.462;6.698;2023-04-24T10:00:12;13.25;;;4.53;;
67861;SDS011;54665;51.462;6.698;2023-04-24T10:02:38;11.50;;;4.75;;
67861;SDS011;54665;51.462;6.698;2023-04-24T10:05:04;12.23;;;4.87;;
67861;SDS011;54665;51.462;6.698;2023-04-24T10:07:32;9.68;;;3.65;;
67861;SDS011;54665;51.462;6.698;2023-04-24T10:09:58;10.70;;;4.03;;
67861;SDS011;54665;51.462;6.698;2023-04-24T10:12:23;12.23;;;4.10;;
67861;SDS011;54665;51.462;6.698;2023-04-24T10:14:50;9.73;;;3.22;;
67861;SDS011;54665;51.462;6.698;2023-04-24T10:17:15;8.17;;;3.47;;
67861;SDS011;54665;51.462;6.698;2023-04-24T10:19:41;9.88;;;2.55;;
67861;SDS011;54665;51.462;6.698;2023-04-24T10:22:08;8.65;;;3.10;;
67861;SDS011;54665;51.462;6.698;2023-04-24T10:24:34;12.03;;;3.23;;
67861;SDS011;54665;51.462;6.698;2023-04-24T10:27:02;9.75;;;3.15;;
67861;SDS011;54665;51.462;6.698;2023-04-24T10:29:29;13.50;;;3.92;;
67861;SDS011;54665;51.462;6.698;2023-04-24T10:31:56;11.73;;;3.47;;
67861;SDS011;54665;51.462;6.698;2023-04-24T10:34:21;11.37;;;3.63;;
67861;SDS011;54665;51.462;6.698;2023-04-24T10:36:50;9.80;;;4.10;;
67861;SDS011;54665;51.462;6.698;2023-04-24T10:39:17;12.90;;;3.95;;
67861;SDS011;54665;51.462;6.698;2023-04-24T10:41:43;14.70;;;4.17;;
67861;SDS011;54665;51.462;6.698;2023-04-24T10:44:13;9.95;;;3.67;;
67861;SDS011;54665;51.462;6.698;2023-04-24T10:46:42;8.30;;;2.90;;
67861;SDS011;54665;51.462;6.698;2023-04-24T10:49:09;14.15;;;3.80;;
67861;SDS011;54665;51.462;6.698;2023-04-24T10:51:50;9.30;;;3.13;;
67861;SDS011;54665;51.462;6.698;2023-04-24T10:56:56;14.95;;;4.00;;
67861;SDS011;54665;51.462;6.698;2023-04-24T10:59:44;9.60;;;3.37;;
67861;SDS011;54665;51.462;6.698;2023-04-24T11:02:11;9.07;;;3.15;;
67861;SDS011;54665;51.462;6.698;2023-04-24T11:04:40;9.25;;;3.67;;
67861;SDS011;54665;51.462;6.698;2023-04-24T11:07:06;11.87;;;3.90;;
67861;SDS011;54665;51.462;6.698;2023-04-24T11:09:32;14.87;;;4.30;;
67861;SDS011;54665;51.462;6.698;2023-04-24T11:12:10;12.32;;;3.90;;
67861;SDS011;54665;51.462;6.698;2023-04-24T11:17:29;13.25;;;4.55;;
67861;SDS011;54665;51.462;6.698;2023-04-24T11:20:07;11.77;;;4.00;;
67861;SDS011;54665;51.462;6.698;2023-04-24T11:22:34;10.68;;;3.25;;
67861;SDS011;54665;51.462;6.698;2023-04-24T11:25:01;9.90;;;3.50;;
67861;SDS011;54665;51.462;6.698;2023-04-24T11:27:30;9.98;;;3.20;;
67861;SDS011;54665;51.462;6.698;2023-04-24T11:34:48;9.00;;;2.77;;
67861;SDS011;54665;51.462;6.698;2023-04-24T11:37:16;10.95;;;3.15;;
67861;SDS011;54665;51.462;6.698;2023-04-24T11:39:41;10.27;;;2.63;;
67861;SDS011;54665;51.462;6.698;2023-04-24T11:42:07;7.13;;;2.60;;
67861;SDS011;54665;51.462;6.698;2023-04-24T11:44:34;5.97;;;2.63;;
67861;SDS011;54665;51.462;6.698;2023-04-24T11:47:02;7.70;;;2.90;;
67861;SDS011;54665;51.462;6.698;2023-04-24T11:49:29;6.88;;;2.50;;
67861;SDS011;54665;51.462;6.698;2023-04-24T11:51:55;10.80;;;2.40;;
67861;SDS011;54665;51.462;6.698;2023-04-24T11:54:20;6.88;;;2.35;;
67861;SDS011;54665;51.462;6.698;2023-04-24T11:56:46;6.70;;;2.83;;
67861;SDS011;54665;51.462;6.698;2023-04-24T11:59:12;7.13;;;2.70;;
67861;SDS011;54665;51.462;6.698;2023-04-24T12:01:45;9.07;;;2.60;;
67861;SDS011;54665;51.462;6.698;2023-04-24T12:04:11;5.47;;;2.53;;
67861;SDS011;54665;51.462;6.698;2023-04-24T12:06:36;7.18;;;2.70;;
67861;SDS011;54665;51.462;6.698;2023-04-24T12:09:02;7.83;;;2.90;;
67861;SDS011;54665;51.462;6.698;2023-04-24T12:11:27;8.67;;;2.70;;
67861;SDS011;54665;51.462;6.698;2023-04-24T12:13:53;5.40;;;2.20;;
67861;SDS011;54665;51.462;6.698;2023-04-24T12:16:19;5.10;;;2.30;;
67861;SDS011;54665;51.462;6.698;2023-04-24T12:18:44;5.00;;;2.20;;
67861;SDS011;54665;51.462;6.698;2023-04-24T12:21:20;6.82;;;2.20;;
67861;SDS011;54665;51.462;6.698;2023-04-24T12:23:47;7.07;;;2.30;;
67861;SDS011;54665;51.462;6.698;2023-04-24T12:26:20;6.22;;;2.40;;
67861;SDS011;54665;51.462;6.698;2023-04-24T12:28:47;5.33;;;1.90;;
67861;SDS011;54665;51.462;6.698;2023-04-24T12:31:14;5.43;;;1.40;;
67861;SDS011;54665;51.462;6.698;2023-04-24T12:33:41;3.65;;;1.52;;
67861;SDS011;54665;51.462;6.698;2023-04-24T12:36:09;3.38;;;1.58;;
67861;SDS011;54665;51.462;6.698;2023-04-24T12:38:35;3.38;;;1.30;;
67861;SDS011;54665;51.462;6.698;2023-04-24T12:41:06;3.40;;;1.43;;
67861;SDS011;54665;51.462;6.698;2023-04-24T12:43:33;4.05;;;1.85;;
67861;SDS011;54665;51.462;6.698;2023-04-24T12:45:59;3.28;;;1.35;;
67861;SDS011;54665;51.462;6.698;2023-04-24T12:48:25;6.07;;;1.90;;
67861;SDS011;54665;51.462;6.698;2023-04-24T12:50:53;2.95;;;1.30;;
67861;SDS011;54665;51.462;6.698;2023-04-24T12:53:20;4.07;;;1.38;;
67861;SDS011;54665;51.462;6.698;2023-04-24T12:55:45;2.97;;;1.17;;
67861;SDS011;54665;51.462;6.698;2023-04-24T12:58:17;2.70;;;1.20;;
67861;SDS011;54665;51.462;6.698;2023-04-24T13:00:43;5.05;;;1.20;;
67861;SDS011;54665;51.462;6.698;2023-04-24T13:03:11;2.67;;;0.70;;
67861;SDS011;54665;51.462;6.698;2023-04-24T13:05:36;3.53;;;0.70;;
67861;SDS011;54665;51.462;6.698;2023-04-24T13:08:02;3.90;;;0.60;;
67861;SDS011;54665;51.462;6.698;2023-04-24T13:10:27;3.93;;;0.97;;
67861;SDS011;54665;51.462;6.698;2023-04-24T13:12:53;3.23;;;0.90;;
67861;SDS011;54665;51.462;6.698;2023-04-24T13:15:19;2.77;;;0.80;;
67861;SDS011;54665;51.462;6.698;2023-04-24T13:17:44;4.63;;;0.80;;
67861;SDS011;54665;51.462;6.698;2023-04-24T13:20:09;2.17;;;0.77;;
67861;SDS011;54665;51.462;6.698;2023-04-24T13:22:35;2.72;;;0.80;;
67861;SDS011;54665;51.462;6.698;2023-04-24T13:25:01;4.32;;;1.00;;
67861;SDS011;54665;51.462;6.698;2023-04-24T13:27:27;2.80;;;0.90;;
67861;SDS011;54665;51.462;6.698;2023-04-24T13:29:52;4.87;;;1.00;;
67861;SDS011;54665;51.462;6.698;2023-04-24T13:32:18;3.20;;;1.07;;
67861;SDS011;54665;51.462;6.698;2023-04-24T13:34:43;4.40;;;1.02;;
67861;SDS011;54665;51.462;6.698;2023-04-24T13:37:09;1.80;;;0.90;;
67861;SDS011;54665;51.462;6.698;2023-04-24T13:39:34;3.87;;;1.20;;
67861;SDS011;54665;51.462;6.698;2023-04-24T13:42:00;6.47;;;1.13;;
67861;SDS011;54665;51.462;6.698;2023-04-24T13:44:25;3.90;;;1.10;;
67861;SDS011;54665;51.462;6.698;2023-04-24T13:46:52;2.22;;;0.80;;
67861;SDS011;54665;51.462;6.698;2023-04-24T13:49:19;1.98;;;0.90;;
67861;SDS011;54665;51.462;6.698;2023-04-24T13:51:45;4.07;;;1.00;;
67861;SDS011;54665;51.462;6.698;2023-04-24T13:54:11;4.18;;;1.05;;
67861;SDS011;54665;51.462;6.698;2023-04-24T13:56:36;4.53;;;1.07;;
67861;SDS011;54665;51.462;6.698;2023-04-24T13:59:02;2.93;;;1.13;;
67861;SDS011;54665;51.462;6.698;2023-04-24T14:01:27;3.57;;;1.00;;
67861;SDS011;54665;51.462;6.698;2023-04-24T14:03:53;2.60;;;1.07;;
67861;SDS011;54665;51.462;6.698;2023-04-24T14:06:20;3.20;;;1.15;;
67861;SDS011;54665;51.462;6.698;2023-04-24T14:08:46;2.30;;;1.00;;
67861;SDS011;54665;51.462;6.698;2023-04-24T14:11:12;4.10;;;1.00;;
67861;SDS011;54665;51.462;6.698;2023-04-24T14:13:38;2.30;;;1.13;;
67861;SDS011;54665;51.462;6.698;2023-04-24T14:16:04;4.30;;;1.20;;
67861;SDS011;54665;51.462;6.698;2023-04-24T14:18:29;3.45;;;0.88;;
67861;SDS011;54665;51.462;6.698;2023-04-24T14:20:55;2.80;;;0.90;;
67861;SDS011;54665;51.462;6.698;2023-04-24T14:23:20;2.73;;;1.13;;
67861;SDS011;54665;51.462;6.698;2023-04-24T14:25:46;3.97;;;1.17;;
67861;SDS011;54665;51.462;6.698;2023-04-24T14:28:15;3.13;;;1.00;;
67861;SDS011;54665;51.462;6.698;2023-04-24T14:30:41;1.80;;;0.87;;
67861;SDS011;54665;51.462;6.698;2023-04-24T14:33:06;1.60;;;0.80;;
67861;SDS011;54665;51.462;6.698;2023-04-24T14:35:32;2.77;;;1.20;;
67861;SDS011;54665;51.462;6.698;2023-04-24T14:37:59;3.17;;;1.15;;
67861;SDS011;54665;51.462;6.698;2023-04-24T14:40:24;4.87;;;1.60;;
67861;SDS011;54665;51.462;6.698;2023-04-24T14:42:49;4.28;;;1.10;;
67861;SDS011;54665;51.462;6.698;2023-04-24T14:45:15;3.93;;;1.40;;
67861;SDS011;54665;51.462;6.698;2023-04-24T14:47:41;6.67;;;1.80;;
67861;SDS011;54665;51.462;6.698;2023-04-24T14:50:06;4.43;;;1.45;;
67861;SDS011;54665;51.462;6.698;2023-04-24T14:52:34;4.63;;;1.30;;
67861;SDS011;54665;51.462;6.698;2023-04-24T14:55:00;4.03;;;1.50;;